Time;durP1;ratioP1;P1;durP2;ratioP2;P2;SDS_P1;SDS_P2;PMS_P1;PMS_P2;Temp;Humidity;BMP_temperature;BMP_pressure;BME280_temperature;BME280_humidity;BME280_pressure;Samples;Min_cycle;Max_cycle;Signal;HPM_P1;HPM_P2
2024/04/05 00:00:39;;;;;;;21.33;4.30;;;;;;;;;;6152964;23;20028;-76
2024/04/05 00:03:05;;;;;;;19.33;3.38;;;;;;;;;;6140718;23;20025;-78
2024/04/05 00:05:30;;;;;;;18.27;3.13;;;;;;;;;;6147155;23;20771;-78
2024/04/05 00:07:56;;;;;;;21.63;3.33;;;;;;;;;;6145288;23;20025;-75
2024/04/05 00:10:21;;;;;;;19.33;2.95;;;;;;;;;;6126990;23;20615;-75
2024/04/05 00:12:47;;;;;;;20.85;2.92;;;;;;;;;;6147612;23;20021;-74
2024/04/05 00:15:12;;;;;;;19.85;3.47;;;;;;;;;;6148915;23;20120;-75
2024/04/05 00:17:37;;;;;;;18.70;3.20;;;;;;;;;;6147310;23;20028;-74
2024/04/05 00:20:03;;;;;;;24.50;4.07;;;;;;;;;;6116634;23;20021;-75
2024/04/05 00:22:28;;;;;;;15.65;2.80;;;;;;;;;;6150900;23;20032;-75
2024/04/05 00:24:56;;;;;;;17.55;4.30;;;;;;;;;;6144621;23;20028;-75
2024/04/05 00:27:22;;;;;;;19.70;3.88;;;;;;;;;;6126092;23;20076;-75
2024/04/05 00:29:48;;;;;;;17.98;3.45;;;;;;;;;;6152015;23;20029;-75
2024/04/05 00:32:13;;;;;;;20.70;4.20;;;;;;;;;;6113541;23;20597;-74
2024/04/05 00:34:39;;;;;;;21.10;3.22;;;;;;;;;;6174427;23;20036;-77
2024/04/05 00:37:04;;;;;;;20.85;3.38;;;;;;;;;;6120173;23;20024;-75
2024/04/05 00:39:30;;;;;;;18.55;3.22;;;;;;;;;;6151989;23;20032;-75
2024/04/05 00:41:55;;;;;;;21.98;3.28;;;;;;;;;;6152185;23;20021;-75
2024/04/05 00:44:21;;;;;;;25.25;5.32;;;;;;;;;;6143769;23;20336;-77
2024/04/05 00:46:47;;;;;;;23.85;3.85;;;;;;;;;;6145249;23;20448;-75
2024/04/05 00:49:12;;;;;;;22.20;3.35;;;;;;;;;;6143132;23;20358;-77
2024/04/05 00:51:38;;;;;;;22.58;3.60;;;;;;;;;;6150901;23;20073;-77
2024/04/05 00:54:04;;;;;;;16.10;3.13;;;;;;;;;;6127736;23;20455;-78
2024/04/05 00:56:31;;;;;;;18.83;3.42;;;;;;;;;;6120246;23;20036;-76
2024/04/05 00:58:56;;;;;;;22.98;4.53;;;;;;;;;;6148191;23;20722;-75
2024/04/05 01:01:23;;;;;;;24.70;4.35;;;;;;;;;;6140247;23;20021;-78
2024/04/05 01:03:48;;;;;;;17.58;3.42;;;;;;;;;;6152301;23;20047;-78
2024/04/05 01:06:14;;;;;;;19.88;4.25;;;;;;;;;;6150054;23;20641;-77
2024/04/05 01:08:39;;;;;;;18.85;3.25;;;;;;;;;;6146110;23;20490;-77
2024/04/05 01:11:05;;;;;;;18.13;4.22;;;;;;;;;;6152119;23;20017;-76
2024/04/05 01:13:30;;;;;;;20.05;3.78;;;;;;;;;;6140617;23;20044;-76
2024/04/05 01:15:56;;;;;;;21.70;3.33;;;;;;;;;;6149006;23;20036;-79
2024/04/05 01:18:22;;;;;;;21.42;4.53;;;;;;;;;;6149398;23;20029;-72
2024/04/05 01:20:50;;;;;;;25.05;4.07;;;;;;;;;;6151461;23;20061;-83
2024/04/05 01:23:16;;;;;;;20.73;3.42;;;;;;;;;;6153360;23;20029;-78
2024/04/05 01:25:42;;;;;;;20.20;3.80;;;;;;;;;;6146359;23;20028;-79
2024/04/05 01:28:14;;;;;;;19.05;3.50;;;;;;;;;;6147882;23;20017;-85
2024/04/05 01:30:40;;;;;;;20.85;4.00;;;;;;;;;;6141581;23;20082;-75
2024/04/05 01:33:06;;;;;;;25.45;3.50;;;;;;;;;;6151647;23;20021;-83
2024/04/05 01:35:31;;;;;;;17.40;3.17;;;;;;;;;;6149848;23;20033;-74
2024/04/05 01:37:57;;;;;;;17.40;3.40;;;;;;;;;;6144891;23;20021;-80
2024/04/05 01:40:24;;;;;;;18.92;3.33;;;;;;;;;;6126411;23;20499;-83
2024/04/05 01:42:50;;;;;;;25.00;3.53;;;;;;;;;;6137485;23;20391;-78
2024/04/05 01:45:16;;;;;;;19.15;3.80;;;;;;;;;;6146449;23;20083;-76
2024/04/05 01:47:42;;;;;;;18.45;3.85;;;;;;;;;;6152433;23;20025;-80
2024/04/05 01:50:08;;;;;;;18.58;2.80;;;;;;;;;;6144858;23;20542;-81
2024/04/05 01:52:33;;;;;;;23.30;3.92;;;;;;;;;;6152158;23;20064;-74
2024/04/05 01:54:59;;;;;;;21.25;3.47;;;;;;;;;;6145471;23;20021;-78
2024/04/05 01:57:24;;;;;;;19.98;3.38;;;;;;;;;;6146318;23;20503;-74
2024/04/05 01:59:51;;;;;;;18.70;3.45;;;;;;;;;;6147908;23;20021;-77
2024/04/05 02:02:16;;;;;;;23.10;4.50;;;;;;;;;;6144266;23;20028;-76
2024/04/05 02:04:43;;;;;;;18.05;2.97;;;;;;;;;;6152642;23;20025;-76
2024/04/05 02:07:08;;;;;;;21.05;4.00;;;;;;;;;;6145778;23;20021;-80
2024/04/05 02:09:33;;;;;;;19.83;3.20;;;;;;;;;;6152477;23;20024;-81
2024/04/05 02:11:59;;;;;;;16.38;2.75;;;;;;;;;;6144272;23;20623;-74
2024/04/05 02:14:25;;;;;;;20.85;3.95;;;;;;;;;;6141797;23;20109;-78
2024/04/05 02:16:51;;;;;;;21.48;3.10;;;;;;;;;;6151965;23;20023;-74
2024/04/05 02:19:17;;;;;;;16.00;3.25;;;;;;;;;;6143356;23;20553;-77
2024/04/05 02:21:42;;;;;;;17.08;3.60;;;;;;;;;;6151617;23;20498;-80
2024/04/05 02:24:08;;;;;;;24.10;4.20;;;;;;;;;;6119215;23;20060;-72
2024/04/05 02:26:33;;;;;;;21.13;4.20;;;;;;;;;;6145306;23;20447;-78
2024/04/05 02:28:58;;;;;;;15.55;3.33;;;;;;;;;;6149417;23;20021;-79
2024/04/05 02:31:24;;;;;;;24.48;3.75;;;;;;;;;;6143788;23;20021;-82
2024/04/05 02:33:49;;;;;;;18.80;3.38;;;;;;;;;;6151413;23;20025;-81
2024/04/05 02:36:15;;;;;;;20.58;3.63;;;;;;;;;;6144708;23;20025;-80
2024/04/05 02:38:40;;;;;;;19.48;3.45;;;;;;;;;;6148058;23;20017;-73
2024/04/05 02:41:07;;;;;;;20.88;3.25;;;;;;;;;;6147023;23;20027;-81
2024/04/05 02:43:33;;;;;;;15.70;3.25;;;;;;;;;;6119948;23;20021;-77
2024/04/05 02:45:58;;;;;;;18.48;2.97;;;;;;;;;;6150128;23;20025;-81
2024/04/05 02:48:24;;;;;;;20.73;3.33;;;;;;;;;;6144879;23;20029;-81
2024/04/05 02:50:50;;;;;;;18.80;3.15;;;;;;;;;;6152106;23;20025;-76
2024/04/05 02:53:15;;;;;;;21.35;4.03;;;;;;;;;;6148089;23;20021;-80
2024/04/05 02:55:40;;;;;;;21.55;3.53;;;;;;;;;;6140546;23;20025;-78
2024/04/05 02:58:06;;;;;;;16.67;3.28;;;;;;;;;;6150815;23;20676;-80
2024/04/05 03:00:31;;;;;;;22.35;3.22;;;;;;;;;;6144958;23;20021;-77
2024/04/05 03:02:57;;;;;;;23.20;3.67;;;;;;;;;;6152614;23;20507;-78
2024/04/05 03:05:22;;;;;;;21.15;3.40;;;;;;;;;;6151885;23;20029;-79
2024/04/05 03:07:49;;;;;;;16.45;3.10;;;;;;;;;;6115722;23;20036;-79
2024/04/05 03:10:16;;;;;;;19.20;3.50;;;;;;;;;;6146406;23;20029;-80
2024/04/05 03:12:41;;;;;;;15.82;3.10;;;;;;;;;;6119611;23;20028;-82
2024/04/05 03:15:09;;;;;;;22.42;3.17;;;;;;;;;;6151330;23;20527;-77
2024/04/05 03:17:35;;;;;;;18.45;3.38;;;;;;;;;;6125573;23;20675;-81
2024/04/05 03:20:00;;;;;;;16.73;3.38;;;;;;;;;;6120187;23;20028;-80
2024/04/05 03:22:27;;;;;;;17.10;3.58;;;;;;;;;;6122381;23;20310;-84
2024/04/05 03:24:52;;;;;;;18.55;4.22;;;;;;;;;;6140216;23;20032;-81
2024/04/05 03:27:18;;;;;;;16.02;3.17;;;;;;;;;;6149632;23;20025;-83
2024/04/05 03:29:43;;;;;;;22.30;4.43;;;;;;;;;;6147760;23;20028;-72
2024/04/05 03:32:09;;;;;;;12.38;2.72;;;;;;;;;;6148505;23;20100;-83
2024/04/05 03:34:35;;;;;;;15.77;2.95;;;;;;;;;;6151447;23;20023;-81
2024/04/05 03:37:00;;;;;;;18.70;2.92;;;;;;;;;;6138806;23;20025;-79
2024/04/05 03:39:25;;;;;;;20.45;3.42;;;;;;;;;;6144976;23;20029;-78
2024/04/05 03:41:51;;;;;;;16.80;3.58;;;;;;;;;;6144111;23;20051;-78
2024/04/05 03:44:16;;;;;;;18.17;3.88;;;;;;;;;;6150335;23;20025;-80
2024/04/05 03:46:43;;;;;;;19.85;4.18;;;;;;;;;;6175407;23;20471;-78
2024/04/05 03:49:08;;;;;;;20.92;4.45;;;;;;;;;;6144173;23;20028;-79
2024/04/05 03:51:34;;;;;;;18.05;3.58;;;;;;;;;;6146576;23;20025;-81
2024/04/05 03:53:59;;;;;;;16.13;3.15;;;;;;;;;;6140436;23;20120;-80
2024/04/05 03:56:25;;;;;;;19.88;3.63;;;;;;;;;;6150904;23;20025;-79
2024/04/05 03:58:51;;;;;;;18.45;3.28;;;;;;;;;;6151266;23;20025;-77
2024/04/05 04:01:17;;;;;;;17.85;3.05;;;;;;;;;;6143944;23;20463;-80
2024/04/05 04:03:45;;;;;;;16.38;3.15;;;;;;;;;;6150983;23;20152;-78
2024/04/05 04:06:11;;;;;;;14.80;3.00;;;;;;;;;;6138331;23;20033;-79
2024/04/05 04:08:37;;;;;;;15.18;3.30;;;;;;;;;;6147860;23;20028;-80
2024/04/05 04:11:03;;;;;;;18.58;3.53;;;;;;;;;;6126045;23;20072;-78
2024/04/05 04:13:28;;;;;;;22.40;3.47;;;;;;;;;;6142664;23;20021;-77
2024/04/05 04:15:55;;;;;;;18.85;3.40;;;;;;;;;;6149213;23;20384;-74
2024/04/05 04:18:21;;;;;;;16.50;3.28;;;;;;;;;;6142104;23;20025;-77
2024/04/05 04:20:46;;;;;;;15.68;3.15;;;;;;;;;;6142487;23;20066;-73
2024/04/05 04:23:12;;;;;;;23.20;3.88;;;;;;;;;;6142586;23;20517;-76
2024/04/05 04:25:37;;;;;;;18.70;3.72;;;;;;;;;;6149407;23;20021;-73
2024/04/05 04:28:03;;;;;;;16.58;3.63;;;;;;;;;;6150237;23;20057;-76
2024/04/05 04:30:30;;;;;;;15.18;2.53;;;;;;;;;;6117675;23;20079;-75
2024/04/05 04:32:55;;;;;;;13.85;3.10;;;;;;;;;;6122805;23;20021;-73
2024/04/05 04:35:21;;;;;;;15.73;3.53;;;;;;;;;;6136557;23;20027;-76
2024/04/05 04:37:46;;;;;;;23.30;3.80;;;;;;;;;;6124164;23;20025;-76
2024/04/05 04:40:11;;;;;;;16.08;3.25;;;;;;;;;;6126004;23;20029;-76
2024/04/05 04:42:40;;;;;;;15.85;3.55;;;;;;;;;;6145365;23;20025;-76
2024/04/05 04:45:05;;;;;;;;;;;;;;;;;;6152600;23;20068;-77
2024/04/05 04:47:31;;;;;;;15.55;2.83;;;;;;;;;;6142215;23;19939;-76
2024/04/05 04:49:58;;;;;;;16.85;3.20;;;;;;;;;;6147218;23;20017;-77
2024/04/05 04:52:24;;;;;;;12.80;3.38;;;;;;;;;;6151915;23;20033;-75
2024/04/05 04:54:50;;;;;;;13.27;2.78;;;;;;;;;;6120500;23;20017;-75
2024/04/05 04:57:15;;;;;;;17.13;2.90;;;;;;;;;;6151096;23;20081;-77
2024/04/05 04:59:40;;;;;;;20.27;4.00;;;;;;;;;;6145045;23;20017;-75
2024/04/05 05:02:08;;;;;;;12.80;2.95;;;;;;;;;;6147075;23;20025;-77
2024/04/05 05:04:34;;;;;;;16.98;3.03;;;;;;;;;;6147119;23;20017;-73
2024/04/05 05:07:00;;;;;;;12.95;2.55;;;;;;;;;;6144719;23;20543;-76
2024/04/05 05:09:25;;;;;;;16.60;3.47;;;;;;;;;;6151922;23;20028;-76
2024/04/05 05:11:50;;;;;;;17.08;3.30;;;;;;;;;;6119719;23;20717;-75
2024/04/05 05:14:16;;;;;;;14.10;2.80;;;;;;;;;;6151025;23;20025;-76
2024/04/05 05:16:41;;;;;;;19.48;3.75;;;;;;;;;;6139804;23;20029;-76
2024/04/05 05:19:07;;;;;;;15.13;3.33;;;;;;;;;;6146604;23;20029;-76
2024/04/05 05:21:33;;;;;;;13.02;2.80;;;;;;;;;;6150530;23;20103;-76
2024/04/05 05:23:59;;;;;;;12.32;2.38;;;;;;;;;;6143772;23;20028;-76
2024/04/05 05:26:24;;;;;;;14.30;2.95;;;;;;;;;;6150183;23;20025;-75
2024/04/05 05:28:49;;;;;;;13.07;3.25;;;;;;;;;;6141031;23;20021;-74
2024/04/05 05:31:15;;;;;;;11.88;2.97;;;;;;;;;;6144625;23;20374;-74
2024/04/05 05:33:40;;;;;;;16.27;3.33;;;;;;;;;;6150168;23;20021;-73
2024/04/05 05:36:06;;;;;;;13.05;3.22;;;;;;;;;;6142681;23;20444;-76
2024/04/05 05:38:31;;;;;;;13.82;3.20;;;;;;;;;;6149943;23;20089;-75
2024/04/05 05:40:57;;;;;;;10.50;2.83;;;;;;;;;;6143903;23;20021;-76
2024/04/05 05:43:23;;;;;;;12.20;3.05;;;;;;;;;;6144124;23;20036;-74
2024/04/05 05:45:48;;;;;;;11.88;2.97;;;;;;;;;;6146151;23;20021;-75
2024/04/05 05:48:13;;;;;;;12.10;2.83;;;;;;;;;;6141606;23;20714;-75
2024/04/05 05:50:39;;;;;;;13.77;3.10;;;;;;;;;;6150938;23;20075;-75
2024/04/05 05:53:04;;;;;;;18.15;3.72;;;;;;;;;;6142055;23;20035;-74
2024/04/05 05:55:30;;;;;;;15.38;3.88;;;;;;;;;;6150231;23;20025;-76
2024/04/05 05:57:57;;;;;;;11.15;2.90;;;;;;;;;;6122151;23;20433;-75
2024/04/05 06:00:22;;;;;;;11.85;2.78;;;;;;;;;;6114482;23;20025;-77
2024/04/05 06:02:48;;;;;;;13.60;3.22;;;;;;;;;;6150467;23;20021;-76
2024/04/05 06:05:13;;;;;;;14.18;3.70;;;;;;;;;;6143500;23;20025;-76
2024/04/05 06:07:39;;;;;;;12.30;2.67;;;;;;;;;;6150367;23;20028;-75
2024/04/05 06:10:04;;;;;;;10.02;2.95;;;;;;;;;;6149432;23;20021;-74
2024/04/05 06:12:30;;;;;;;19.27;3.75;;;;;;;;;;6138658;23;20029;-73
2024/04/05 06:14:56;;;;;;;15.88;3.45;;;;;;;;;;6145471;23;20021;-77
2024/04/05 06:17:25;;;;;;;12.52;3.15;;;;;;;;;;6142570;23;20035;-77
2024/04/05 06:19:54;;;;;;;10.90;2.80;;;;;;;;;;6125480;23;20053;-77
2024/04/05 06:22:19;;;;;;;14.77;3.13;;;;;;;;;;6145922;23;20021;-76
2024/04/05 06:24:48;;;;;;;10.82;2.78;;;;;;;;;;6146071;23;20021;-76
2024/04/05 06:27:14;;;;;;;11.70;3.10;;;;;;;;;;6142303;23;20076;-74
2024/04/05 06:29:40;;;;;;;13.35;3.13;;;;;;;;;;6142797;23;20025;-76
2024/04/05 06:32:06;;;;;;;11.90;2.88;;;;;;;;;;6149445;23;20482;-76
2024/04/05 06:34:31;;;;;;;14.75;3.65;;;;;;;;;;6143114;23;20021;-77
2024/04/05 06:36:56;;;;;;;14.80;3.50;;;;;;;;;;6148638;23;20024;-76
2024/04/05 06:39:22;;;;;;;13.82;2.92;;;;;;;;;;6120918;23;20020;-76
2024/04/05 06:41:48;;;;;;;15.80;3.15;;;;;;;;;;6138245;23;20517;-76
2024/04/05 06:44:15;;;;;;;13.00;2.90;;;;;;;;;;6148863;23;20059;-76
2024/04/05 06:46:40;;;;;;;14.05;2.92;;;;;;;;;;6118920;23;20021;-74
2024/04/05 06:49:06;;;;;;;9.25;2.65;;;;;;;;;;6149332;23;20372;-77
2024/04/05 06:51:31;;;;;;;10.57;2.75;;;;;;;;;;6149741;23;20076;-77
2024/04/05 06:53:56;;;;;;;11.13;3.20;;;;;;;;;;6139735;23;20095;-76
2024/04/05 06:56:22;;;;;;;12.45;3.35;;;;;;;;;;6120318;23;20066;-77
2024/04/05 06:58:47;;;;;;;11.70;2.90;;;;;;;;;;6141163;23;20503;-76
2024/04/05 07:01:13;;;;;;;11.15;3.05;;;;;;;;;;6124159;23;20021;-76
2024/04/05 07:03:38;;;;;;;15.10;3.40;;;;;;;;;;6149486;23;20021;-76
2024/04/05 07:06:04;;;;;;;11.77;2.58;;;;;;;;;;6141974;23;20104;-75
2024/04/05 07:08:30;;;;;;;10.70;2.47;;;;;;;;;;6145341;23;20124;-76
2024/04/05 07:10:56;;;;;;;9.48;2.95;;;;;;;;;;6113244;23;20025;-77
2024/04/05 07:13:22;;;;;;;8.25;2.45;;;;;;;;;;6148290;23;20044;-77
2024/04/05 07:15:48;;;;;;;11.85;2.38;;;;;;;;;;6149681;23;20561;-78
2024/04/05 07:18:14;;;;;;;9.45;2.22;;;;;;;;;;6142926;23;20024;-77
2024/04/05 07:20:40;;;;;;;10.57;3.17;;;;;;;;;;6174797;23;20021;-75
2024/04/05 07:23:05;;;;;;;14.15;3.13;;;;;;;;;;6113494;23;20806;-77
2024/04/05 07:25:31;;;;;;;11.05;3.10;;;;;;;;;;6144469;23;20028;-76
2024/04/05 07:27:57;;;;;;;11.73;3.15;;;;;;;;;;6143266;23;20021;-77
2024/04/05 07:30:22;;;;;;;12.23;2.70;;;;;;;;;;6148010;23;20028;-79
2024/04/05 07:32:48;;;;;;;10.50;2.75;;;;;;;;;;6149654;23;20024;-78
2024/04/05 07:35:14;;;;;;;10.32;2.58;;;;;;;;;;6142120;23;20066;-76
2024/04/05 07:37:39;;;;;;;8.13;2.45;;;;;;;;;;6145086;23;20479;-78
2024/04/05 07:40:05;;;;;;;10.98;2.20;;;;;;;;;;6137531;23;20440;-77
2024/04/05 07:42:31;;;;;;;9.52;2.17;;;;;;;;;;6148194;23;20029;-79
2024/04/05 07:44:58;;;;;;;8.43;2.35;;;;;;;;;;6149926;23;20021;-76
2024/04/05 07:47:23;;;;;;;9.98;2.42;;;;;;;;;;6142752;23;20036;-78
2024/04/05 07:49:52;;;;;;;12.07;2.60;;;;;;;;;;6151479;23;20052;-76
2024/04/05 07:52:20;;;;;;;6.97;2.10;;;;;;;;;;6135280;23;20028;-77
2024/04/05 07:54:45;;;;;;;6.73;2.07;;;;;;;;;;6147370;23;20035;-76
2024/04/05 07:57:11;;;;;;;9.93;2.00;;;;;;;;;;6149014;23;20251;-74
2024/04/05 07:59:37;;;;;;;10.13;2.33;;;;;;;;;;6141639;23;20029;-78
2024/04/05 08:02:03;;;;;;;7.70;2.08;;;;;;;;;;6125254;23;20043;-77
2024/04/05 08:04:28;;;;;;;10.10;2.38;;;;;;;;;;6165266;23;20021;-76
2024/04/05 08:06:57;;;;;;;7.53;2.08;;;;;;;;;;6118760;23;20087;-77
2024/04/05 08:09:24;;;;;;;9.82;2.22;;;;;;;;;;6148322;23;20025;-76
2024/04/05 08:11:49;;;;;;;10.77;1.98;;;;;;;;;;6145384;23;20451;-75
2024/04/05 08:14:14;;;;;;;7.38;2.08;;;;;;;;;;6149314;23;20027;-78
2024/04/05 08:16:40;;;;;;;11.93;2.53;;;;;;;;;;6145160;23;20025;-77
2024/04/05 08:19:05;;;;;;;7.63;2.00;;;;;;;;;;6146837;23;20060;-72
2024/04/05 08:21:31;;;;;;;8.55;2.15;;;;;;;;;;6140595;23;20028;-77
2024/04/05 08:23:56;;;;;;;8.65;2.10;;;;;;;;;;6150467;23;20025;-77
2024/04/05 08:26:22;;;;;;;6.93;2.17;;;;;;;;;;6150935;23;20032;-76
2024/04/05 08:28:47;;;;;;;7.90;1.98;;;;;;;;;;6144643;23;20032;-77
2024/04/05 08:31:12;;;;;;;9.05;2.20;;;;;;;;;;6150162;23;20036;-77
2024/04/05 08:33:39;;;;;;;6.10;2.10;;;;;;;;;;6142965;23;20029;-77
2024/04/05 08:36:05;;;;;;;7.97;2.05;;;;;;;;;;6150441;23;20703;-77
2024/04/05 08:38:30;;;;;;;7.90;1.90;;;;;;;;;;6126154;23;20074;-76
2024/04/05 08:40:57;;;;;;;6.10;2.08;;;;;;;;;;6144696;23;20072;-78
2024/04/05 08:43:26;;;;;;;6.97;1.90;;;;;;;;;;6145061;23;20033;-78
2024/04/05 08:45:51;;;;;;;12.60;2.25;;;;;;;;;;6141590;23;20033;-77
2024/04/05 08:48:19;;;;;;;6.55;1.92;;;;;;;;;;6150274;23;20021;-78
2024/04/05 08:50:45;;;;;;;12.07;2.47;;;;;;;;;;6148328;23;20020;-77
2024/04/05 08:53:10;;;;;;;6.82;2.53;;;;;;;;;;6146447;23;20273;-76
2024/04/05 08:55:38;;;;;;;8.23;2.13;;;;;;;;;;6151381;23;20025;-76
2024/04/05 08:58:05;;;;;;;7.60;2.05;;;;;;;;;;6120240;23;20028;-78
2024/04/05 09:00:31;;;;;;;7.43;1.80;;;;;;;;;;6153993;23;20025;-74
2024/04/05 09:02:59;;;;;;;10.48;2.20;;;;;;;;;;6148405;23;20017;-78
2024/04/05 09:05:24;;;;;;;8.43;2.30;;;;;;;;;;6152959;23;20032;-76
2024/04/05 09:07:50;;;;;;;5.60;1.70;;;;;;;;;;6147725;23;20246;-77
2024/04/05 09:10:19;;;;;;;7.38;2.20;;;;;;;;;;6163300;23;20025;-76
2024/04/05 09:12:51;;;;;;;6.63;2.58;;;;;;;;;;6151473;23;20136;-76
2024/04/05 09:15:17;;;;;;;6.75;2.00;;;;;;;;;;6144086;23;20021;-77
2024/04/05 09:17:44;;;;;;;6.40;2.13;;;;;;;;;;6149884;23;20021;-76
2024/04/05 09:20:12;;;;;;;5.10;1.73;;;;;;;;;;6152783;23;20017;-77
2024/04/05 09:22:38;;;;;;;7.70;1.80;;;;;;;;;;6141155;23;20752;-77
2024/04/05 09:25:04;;;;;;;8.23;1.95;;;;;;;;;;6149991;23;20043;-76
2024/04/05 09:27:30;;;;;;;10.77;2.72;;;;;;;;;;6121081;23;20448;-76
2024/04/05 09:30:05;;;;;;;9.48;2.17;;;;;;;;;;6151076;23;20060;-74
2024/04/05 09:32:31;;;;;;;6.15;1.98;;;;;;;;;;6149137;23;20025;-74
2024/04/05 09:34:57;;;;;;;4.78;1.70;;;;;;;;;;6146352;23;20117;-75
2024/04/05 09:37:25;;;;;;;8.73;2.17;;;;;;;;;;6145307;23;20035;-75
2024/04/05 09:39:52;;;;;;;7.75;2.30;;;;;;;;;;6138567;23;20025;-75
2024/04/05 09:42:20;;;;;;;8.55;1.58;;;;;;;;;;6149398;23;20028;-75
2024/04/05 09:44:45;;;;;;;4.70;1.65;;;;;;;;;;6144322;23;20827;-75
2024/04/05 09:47:11;;;;;;;5.55;2.17;;;;;;;;;;6149323;23;20029;-74
2024/04/05 09:49:37;;;;;;;9.70;2.33;;;;;;;;;;6150418;23;20767;-74
2024/04/05 09:52:09;;;;;;;5.18;1.83;;;;;;;;;;6138734;23;20032;-75
2024/04/05 09:54:39;;;;;;;7.05;2.08;;;;;;;;;;6145880;23;20032;-74
2024/04/05 09:57:06;;;;;;;7.47;2.20;;;;;;;;;;6143163;23;20418;-73
2024/04/05 09:59:32;;;;;;;8.30;1.88;;;;;;;;;;6149962;23;20027;-75
2024/04/05 10:02:01;;;;;;;6.20;2.10;;;;;;;;;;6150457;23;20028;-71
2024/04/05 10:04:26;;;;;;;7.25;2.10;;;;;;;;;;6139000;23;20104;-72
2024/04/05 10:06:51;;;;;;;8.13;2.20;;;;;;;;;;6144905;23;20021;-74
2024/04/05 10:09:18;;;;;;;8.05;2.05;;;;;;;;;;6137238;23;20120;-75
2024/04/05 10:11:44;;;;;;;6.45;2.47;;;;;;;;;;6150144;23;20025;-72
2024/04/05 10:14:10;;;;;;;9.98;2.30;;;;;;;;;;6146475;23;20333;-71
2024/04/05 10:16:36;;;;;;;7.35;2.10;;;;;;;;;;6147159;23;20021;-72
2024/04/05 10:19:08;;;;;;;8.75;2.72;;;;;;;;;;6148912;23;20017;-74
2024/04/05 10:21:34;;;;;;;5.88;2.00;;;;;;;;;;6137497;23;20029;-75
2024/04/05 10:23:59;;;;;;;6.18;2.28;;;;;;;;;;6148711;23;20028;-75
2024/04/05 10:26:25;;;;;;;6.32;2.13;;;;;;;;;;6143603;23;20029;-75
2024/04/05 10:29:01;;;;;;;7.80;1.85;;;;;;;;;;6149304;23;20032;-73
2024/04/05 10:31:26;;;;;;;6.88;2.00;;;;;;;;;;6149729;23;20032;-75
2024/04/05 10:33:52;;;;;;;6.82;2.03;;;;;;;;;;6138468;23;20017;-74
2024/04/05 10:36:17;;;;;;;5.80;2.20;;;;;;;;;;6146766;23;20483;-75
2024/04/05 10:38:43;;;;;;;6.30;1.77;;;;;;;;;;6143795;23;20053;-74
2024/04/05 10:41:08;;;;;;;4.97;1.85;;;;;;;;;;6150959;23;20445;-75
2024/04/05 10:43:34;;;;;;;6.25;1.85;;;;;;;;;;6150437;23;20525;-75
2024/04/05 10:46:01;;;;;;;8.32;2.05;;;;;;;;;;6143532;23;20025;-72
2024/04/05 10:48:26;;;;;;;7.07;2.00;;;;;;;;;;6146847;23;20025;-72
2024/04/05 10:50:52;;;;;;;5.25;1.77;;;;;;;;;;6144127;23;20025;-74
2024/04/05 10:53:19;;;;;;;8.38;1.90;;;;;;;;;;6125511;23;20021;-75
2024/04/05 10:55:44;;;;;;;5.30;1.90;;;;;;;;;;6126263;23;20409;-73
2024/04/05 10:58:11;;;;;;;5.03;1.88;;;;;;;;;;6119329;23;20029;-75
2024/04/05 11:00:36;;;;;;;7.93;2.30;;;;;;;;;;6145833;23;20025;-74
2024/04/05 11:03:03;;;;;;;6.25;1.92;;;;;;;;;;6142645;23;20021;-75
2024/04/05 11:05:29;;;;;;;6.15;1.75;;;;;;;;;;6150400;23;20021;-74
2024/04/05 11:07:59;;;;;;;7.10;2.10;;;;;;;;;;6147664;23;20056;-73
2024/04/05 11:10:28;;;;;;;10.65;2.20;;;;;;;;;;6125365;23;20021;-77
2024/04/05 11:12:53;;;;;;;7.50;2.05;;;;;;;;;;6175020;23;20716;-76
2024/04/05 11:15:19;;;;;;;4.35;1.70;;;;;;;;;;6137517;23;20029;-73
2024/04/05 11:17:48;;;;;;;5.32;1.80;;;;;;;;;;6149366;23;20514;-74
2024/04/05 11:20:13;;;;;;;5.40;1.77;;;;;;;;;;6143780;23;20436;-75
2024/04/05 11:22:39;;;;;;;5.35;1.90;;;;;;;;;;6150990;23;20087;-76
2024/04/05 11:25:06;;;;;;;6.60;2.20;;;;;;;;;;6150557;23;20025;-76
2024/04/05 11:27:31;;;;;;;8.00;2.28;;;;;;;;;;6141605;23;20035;-76
2024/04/05 11:29:57;;;;;;;6.60;2.03;;;;;;;;;;6146815;23;20025;-76
2024/04/05 11:32:25;;;;;;;5.72;1.70;;;;;;;;;;6144337;23;20635;-76
2024/04/05 11:34:51;;;;;;;;;;;;;;;;;;6151109;23;20029;-74
2024/04/05 11:37:16;;;;;;;4.85;2.20;;;;;;;;;;6146776;23;19920;-74
2024/04/05 11:39:42;;;;;;;7.75;1.70;;;;;;;;;;6145884;23;20050;-75
2024/04/05 11:42:08;;;;;;;4.10;1.58;;;;;;;;;;6145004;23;20367;-77
2024/04/05 11:44:33;;;;;;;6.72;1.85;;;;;;;;;;6140760;23;20335;-77
2024/04/05 11:46:59;;;;;;;4.70;1.48;;;;;;;;;;6150922;23;20143;-77
2024/04/05 11:49:25;;;;;;;5.60;1.70;;;;;;;;;;6144521;23;20021;-76
2024/04/05 11:51:50;;;;;;;6.15;1.75;;;;;;;;;;6149680;23;20025;-76
2024/04/05 11:54:16;;;;;;;6.45;1.92;;;;;;;;;;6148453;23;20085;-75
2024/04/05 11:56:41;;;;;;;5.85;1.52;;;;;;;;;;6137911;23;20021;-76
2024/04/05 11:59:07;;;;;;;6.88;1.50;;;;;;;;;;6147886;23;20027;-73
2024/04/05 12:01:32;;;;;;;5.90;1.55;;;;;;;;;;6148524;23;20212;-73
2024/04/05 12:03:58;;;;;;;6.38;1.85;;;;;;;;;;6155461;23;20479;-75
2024/04/05 12:06:23;;;;;;;5.82;1.60;;;;;;;;;;6152864;23;20155;-74
2024/04/05 12:08:49;;;;;;;5.40;1.50;;;;;;;;;;6141371;23;20343;-76
2024/04/05 12:11:14;;;;;;;10.90;1.83;;;;;;;;;;6145879;23;20032;-76
2024/04/05 12:13:42;;;;;;;5.82;1.58;;;;;;;;;;6145895;23;20021;-77
2024/04/05 12:16:08;;;;;;;5.32;1.50;;;;;;;;;;6150176;23;20036;-77
2024/04/05 12:18:34;;;;;;;4.65;1.65;;;;;;;;;;6151118;23;20355;-76
2024/04/05 12:20:59;;;;;;;5.18;1.77;;;;;;;;;;6142985;23;20072;-75
2024/04/05 12:23:25;;;;;;;7.40;1.73;;;;;;;;;;6146802;23;20025;-76
2024/04/05 12:25:55;;;;;;;5.90;1.40;;;;;;;;;;6141759;23;20021;-74
2024/04/05 12:28:20;;;;;;;3.88;1.70;;;;;;;;;;6127755;23;20017;-75
2024/04/05 12:30:45;;;;;;;4.35;1.58;;;;;;;;;;6150359;23;20390;-76
2024/04/05 12:33:11;;;;;;;4.78;1.48;;;;;;;;;;6142482;23;20035;-73
2024/04/05 12:35:36;;;;;;;3.40;1.25;;;;;;;;;;6148970;23;20025;-77
2024/04/05 12:38:02;;;;;;;5.93;1.38;;;;;;;;;;6137190;23;20029;-75
2024/04/05 12:40:39;;;;;;;5.20;1.67;;;;;;;;;;6147601;23;20024;-78
2024/04/05 12:43:06;;;;;;;4.38;1.85;;;;;;;;;;6168415;23;20024;-74
2024/04/05 12:45:32;;;;;;;4.90;1.73;;;;;;;;;;6150666;23;20018;-75
2024/04/05 12:47:57;;;;;;;5.00;1.70;;;;;;;;;;6148611;23;20080;-73
2024/04/05 12:50:23;;;;;;;3.20;1.40;;;;;;;;;;6115316;23;20025;-78
2024/04/05 12:52:49;;;;;;;4.72;1.60;;;;;;;;;;6120313;23;20025;-76
2024/04/05 12:55:15;;;;;;;5.68;1.55;;;;;;;;;;6142438;23;20562;-79
2024/04/05 12:57:41;;;;;;;5.28;1.73;;;;;;;;;;6151666;23;20075;-74
2024/04/05 13:00:10;;;;;;;4.25;1.60;;;;;;;;;;6150425;23;20021;-79
2024/04/05 13:02:36;;;;;;;4.28;1.65;;;;;;;;;;6145252;23;20028;-76
2024/04/05 13:05:03;;;;;;;6.05;1.70;;;;;;;;;;6150137;23;20028;-77
2024/04/05 13:07:28;;;;;;;7.28;1.75;;;;;;;;;;6139884;23;20025;-76
2024/04/05 13:09:53;;;;;;;7.00;1.77;;;;;;;;;;6151484;23;20028;-77
2024/04/05 13:12:19;;;;;;;4.40;1.42;;;;;;;;;;6150984;23;20043;-77
2024/04/05 13:14:44;;;;;;;5.75;1.50;;;;;;;;;;6121533;23;20025;-77
2024/04/05 13:17:10;;;;;;;5.68;1.90;;;;;;;;;;6151010;23;20100;-78
2024/04/05 13:19:35;;;;;;;16.13;3.45;;;;;;;;;;6115958;23;20021;-76
2024/04/05 13:22:01;;;;;;;4.32;1.88;;;;;;;;;;6146679;23;20091;-76
2024/04/05 13:24:28;;;;;;;4.65;1.67;;;;;;;;;;6148174;23;20051;-72
2024/04/05 13:26:54;;;;;;;6.65;2.03;;;;;;;;;;6124926;23;20024;-78
2024/04/05 13:29:20;;;;;;;5.80;2.10;;;;;;;;;;6151934;23;20025;-77
2024/04/05 13:31:45;;;;;;;3.63;1.90;;;;;;;;;;6145898;23;20068;-77
2024/04/05 13:34:10;;;;;;;8.32;2.00;;;;;;;;;;6145901;23;20095;-73
2024/04/05 13:36:39;;;;;;;6.55;1.65;;;;;;;;;;6141427;23;20021;-77
2024/04/05 13:39:09;;;;;;;;;;;;;;;;;;6151803;23;20340;-75
2024/04/05 13:41:37;;;;;;;5.05;1.70;;;;;;;;;;6152141;23;19924;-78
2024/04/05 13:44:03;;;;;;;;;;;;;;;;;;6145497;23;20025;-77
2024/04/05 13:46:28;;;;;;;7.25;1.83;;;;;;;;;;6125415;23;19920;-73
2024/04/05 13:48:54;;;;;;;4.88;1.70;;;;;;;;;;6140280;23;20025;-78
2024/04/05 13:51:26;;;;;;;4.47;1.90;;;;;;;;;;6151210;23;20668;-78
2024/04/05 13:53:55;;;;;;;4.55;2.17;;;;;;;;;;6153275;23;20020;-79
2024/04/05 13:56:21;;;;;;;4.25;1.60;;;;;;;;;;6144532;23;20028;-76
2024/04/05 13:58:47;;;;;;;4.50;1.65;;;;;;;;;;6152235;23;20025;-78
2024/04/05 14:01:12;;;;;;;5.63;1.92;;;;;;;;;;6140053;23;20056;-74
2024/04/05 14:03:39;;;;;;;4.18;1.83;;;;;;;;;;6173508;23;20025;-78
2024/04/05 14:06:05;;;;;;;6.03;1.90;;;;;;;;;;6150842;23;20052;-79
2024/04/05 14:08:30;;;;;;;4.47;1.80;;;;;;;;;;6121783;23;20696;-78
2024/04/05 14:10:59;;;;;;;4.57;1.88;;;;;;;;;;6152778;23;20475;-81
2024/04/05 14:13:25;;;;;;;3.97;1.95;;;;;;;;;;6145392;23;20036;-81
2024/04/05 14:15:58;;;;;;;6.25;1.90;;;;;;;;;;6150107;23;20028;-77
2024/04/05 14:18:24;;;;;;;5.32;1.90;;;;;;;;;;6142451;23;20025;-80
2024/04/05 14:20:49;;;;;;;3.40;1.80;;;;;;;;;;6152241;23;20721;-81
2024/04/05 14:23:14;;;;;;;5.15;2.17;;;;;;;;;;6152456;23;20071;-75
2024/04/05 14:25:44;;;;;;;4.05;1.80;;;;;;;;;;6145560;23;20021;-80
2024/04/05 14:28:10;;;;;;;5.85;1.95;;;;;;;;;;6152227;23;20356;-83